Wetterdaten: Woche 31.03.14 - 06.04.14 (KW14)
Datum Zeit Temp. A. Feuchte A. Luftdruck Regen Wind Richtung Sonnenschein ET UV Solar Taupunkt Windchill Windben
31.03.2014 00:00 6,1 C 85 % 1014,9 hPa 0,0 l/m 0,1 km/h (0 Bft) N-NW 0,00 h 0,000 mm 0,0 UV-I 0 W/m 3,7 C 6,1 C 0,3 km/h (0 Bft)
31.03.2014 01:00 5,1 C 88 % 1014,7 hPa 0,0 l/m 0,0 km/h (0 Bft) N-NW 0,00 h 0,000 mm 0,0 UV-I 0 W/m 3,3 C 5,1 C 0,1 km/h (0 Bft)
31.03.2014 02:00 4,4 C 90 % 1014,6 hPa 0,0 l/m 0,0 km/h (0 Bft) N-NW 0,00 h 0,000 mm 0,0 UV-I 0 W/m 2,9 C 4,4 C 0,2 km/h (0 Bft)
31.03.2014 03:00 3,7 C 91 % 1014,2 hPa 0,0 l/m 0,0 km/h (0 Bft) N 0,00 h 0,000 mm 0,0 UV-I 0 W/m 2,4 C 3,7 C 0,0 km/h (0 Bft)
31.03.2014 04:00 3,4 C 92 % 1014,1 hPa 0,0 l/m 0,1 km/h (0 Bft) N-NW 0,00 h 0,000 mm 0,0 UV-I 0 W/m 2,2 C 3,4 C 0,3 km/h (0 Bft)
31.03.2014 05:00 3,1 C 93 % 1013,7 hPa 0,0 l/m 0,0 km/h (0 Bft) N 0,00 h 0,000 mm 0,0 UV-I 0 W/m 2,0 C 3,1 C 0,3 km/h (0 Bft)
31.03.2014 06:00 2,6 C 93 % 1013,6 hPa 0,0 l/m 0,0 km/h (0 Bft) N 0,00 h 0,000 mm 0,0 UV-I 0 W/m 1,5 C 2,6 C 0,0 km/h (0 Bft)
31.03.2014 07:00 2,4 C 93 % 1014,0 hPa 0,0 l/m 0,1 km/h (0 Bft) N-NW 0,00 h 0,000 mm 0,0 UV-I 23 W/m 1,4 C 2,4 C 0,5 km/h (0 Bft)
31.03.2014 08:00 3,5 C 93 % 1014,2 hPa 0,0 l/m 0,0 km/h (0 Bft) N 0,87 h 0,000 mm 0,0 UV-I 69 W/m 2,4 C 3,5 C 0,1 km/h (0 Bft)
31.03.2014 09:00 4,9 C 90 % 1014,4 hPa 0,0 l/m 0,0 km/h (0 Bft) N 1,00 h 0,025 mm 0,5 UV-I 122 W/m 3,4 C 4,9 C 0,2 km/h (0 Bft)
31.03.2014 10:00 6,7 C 84 % 1014,7 hPa 0,0 l/m 0,3 km/h (0 Bft) N-NW 1,00 h 0,051 mm 0,8 UV-I 171 W/m 4,3 C 6,7 C 1,1 km/h (0 Bft)
31.03.2014 11:00 10,0 C 75 % 1014,6 hPa 0,0 l/m 0,3 km/h (0 Bft) N-NW 1,00 h 0,102 mm 1,5 UV-I 285 W/m 5,8 C 10,0 C 1,1 km/h (1 Bft)
31.03.2014 12:00 12,5 C 66 % 1014,6 hPa 0,0 l/m 1,4 km/h (1 Bft) N-NW 1,00 h 0,127 mm 1,7 UV-I 307 W/m 6,4 C 12,5 C 3,1 km/h (1 Bft)
31.03.2014 13:00 14,2 C 59 % 1014,4 hPa 0,0 l/m 2,8 km/h (1 Bft) NW 1,00 h 0,152 mm 2,0 UV-I 357 W/m 6,3 C 14,2 C 4,9 km/h (1 Bft)
31.03.2014 14:00 15,6 C 51 % 1014,1 hPa 0,0 l/m 4,6 km/h (1 Bft) N-NW 1,00 h 0,203 mm 2,1 UV-I 383 W/m 5,6 C 15,4 C 7,6 km/h (2 Bft)
31.03.2014 15:00 16,5 C 48 % 1013,6 hPa 0,2 l/m 5,6 km/h (1 Bft) N 1,00 h 0,229 mm 2,0 UV-I 420 W/m 5,6 C 16,2 C 9,0 km/h (2 Bft)
31.03.2014 16:00 16,6 C 46 % 1013,3 hPa 0,0 l/m 6,8 km/h (2 Bft) N 1,00 h 0,279 mm 1,3 UV-I 301 W/m 4,9 C 16,1 C 10,6 km/h (2 Bft)
31.03.2014 17:00 15,9 C 44 % 1013,2 hPa 0,0 l/m 4,5 km/h (1 Bft) N 1,00 h 0,203 mm 0,6 UV-I 161 W/m 3,6 C 15,8 C 7,1 km/h (2 Bft)
31.03.2014 18:00 15,4 C 49 % 1013,2 hPa 0,0 l/m 2,3 km/h (1 Bft) N 0,72 h 0,127 mm 0,5 UV-I 78 W/m 4,7 C 15,4 C 4,2 km/h (1 Bft)
31.03.2014 19:00 13,4 C 58 % 1013,4 hPa 0,0 l/m 5,3 km/h (1 Bft) N-NO 0,00 h 0,076 mm 0,0 UV-I 23 W/m 5,5 C 13,4 C 8,1 km/h (2 Bft)
31.03.2014 20:00 10,7 C 71 % 1013,8 hPa 0,0 l/m 0,4 km/h (0 Bft) NO 0,00 h 0,052 mm 0,0 UV-I 0 W/m 5,6 C 10,7 C 1,2 km/h (1 Bft)
31.03.2014 21:00 8,7 C 79 % 1014,2 hPa 0,0 l/m 0,0 km/h (0 Bft) N 0,00 h 0,025 mm 0,0 UV-I 0 W/m 5,3 C 8,7 C 0,1 km/h (0 Bft)
31.03.2014 22:00 6,9 C 85 % 1014,4 hPa 0,0 l/m 0,1 km/h (0 Bft) O-SO 0,00 h 0,025 mm 0,0 UV-I 0 W/m 4,6 C 6,9 C 0,5 km/h (0 Bft)
31.03.2014 23:00 6,0 C 87 % 1014,4 hPa 0,0 l/m 0,0 km/h (0 Bft) N 0,00 h 0,000 mm 0,0 UV-I 0 W/m 4,0 C 6,0 C 0,0 km/h (0 Bft)
01.04.2014 00:00 4,9 C 90 % 1014,4 hPa 0,0 l/m 0,0 km/h (0 Bft) N 0,00 h 0,000 mm 0,0 UV-I 0 W/m 3,3 C 4,9 C 0,1 km/h (0 Bft)
01.04.2014 01:00 4,0 C 91 % 1014,3 hPa 0,0 l/m 0,0 km/h (0 Bft) N 0,00 h 0,000 mm 0,0 UV-I 0 W/m 2,7 C 4,0 C 0,0 km/h (0 Bft)
01.04.2014 02:00 3,4 C 92 % 1014,3 hPa 0,0 l/m 0,0 km/h (0 Bft) N 0,00 h 0,000 mm 0,0 UV-I 0 W/m 2,3 C 3,4 C 0,0 km/h (0 Bft)
01.04.2014 03:00 2,9 C 93 % 1014,3 hPa 0,0 l/m 0,0 km/h (0 Bft) N 0,00 h 0,000 mm 0,0 UV-I 0 W/m 1,9 C 2,9 C 0,0 km/h (0 Bft)
01.04.2014 04:00 2,3 C 93 % 1014,3 hPa 0,0 l/m 0,0 km/h (0 Bft) N 0,00 h 0,000 mm 0,0 UV-I 0 W/m 1,4 C 2,3 C 0,0 km/h (0 Bft)
01.04.2014 05:00 1,6 C 94 % 1014,2 hPa 0,0 l/m 0,0 km/h (0 Bft) N 0,00 h 0,000 mm 0,0 UV-I 0 W/m 0,7 C 1,6 C 0,0 km/h (0 Bft)
01.04.2014 06:00 1,2 C 94 % 1013,8 hPa 0,0 l/m 0,0 km/h (0 Bft) N 0,00 h 0,000 mm 0,0 UV-I 6 W/m 0,4 C 1,2 C 0,0 km/h (0 Bft)
01.04.2014 07:00 1,4 C 94 % 1014,1 hPa 0,0 l/m 0,2 km/h (0 Bft) W-NW 0,17 h 0,000 mm 0,0 UV-I 33 W/m 0,5 C 1,4 C 0,4 km/h (0 Bft)
01.04.2014 08:00 2,7 C 92 % 1014,4 hPa 0,0 l/m 0,6 km/h (0 Bft) SO 1,00 h 0,000 mm 0,6 UV-I 142 W/m 1,6 C 2,7 C 1,7 km/h (1 Bft)
01.04.2014 09:00 6,8 C 85 % 1014,2 hPa 0,0 l/m 0,1 km/h (0 Bft) SO 1,00 h 0,051 mm 1,1 UV-I 310 W/m 4,3 C 6,8 C 0,4 km/h (0 Bft)
01.04.2014 10:00 11,4 C 70 % 1014,1 hPa 0,0 l/m 0,9 km/h (0 Bft) N-NW 1,00 h 0,127 mm 1,9 UV-I 429 W/m 6,2 C 11,4 C 2,4 km/h (1 Bft)
01.04.2014 11:00 13,8 C 62 % 1013,9 hPa 0,0 l/m 2,2 km/h (1 Bft) NW 1,00 h 0,203 mm 2,3 UV-I 445 W/m 6,5 C 13,8 C 4,0 km/h (1 Bft)
01.04.2014 12:00 15,9 C 55 % 1013,5 hPa 0,0 l/m 2,7 km/h (1 Bft) W-NW 1,00 h 0,229 mm 3,4 UV-I 622 W/m 6,7 C 15,8 C 5,0 km/h (1 Bft)
01.04.2014 13:00 16,8 C 49 % 1013,0 hPa 0,0 l/m 3,4 km/h (1 Bft) W-NW 1,00 h 0,356 mm 3,3 UV-I 578 W/m 6,1 C 16,8 C 6,0 km/h (2 Bft)
01.04.2014 14:00 18,1 C 39 % 1012,4 hPa 0,0 l/m 2,5 km/h (1 Bft) N-NO 1,00 h 0,330 mm 3,3 UV-I 628 W/m 3,9 C 18,1 C 4,8 km/h (1 Bft)
01.04.2014 15:00 18,8 C 37 % 1011,8 hPa 0,0 l/m 2,5 km/h (1 Bft) O 1,00 h 0,381 mm 2,5 UV-I 537 W/m 3,6 C 18,8 C 5,3 km/h (1 Bft)
01.04.2014 16:00 19,0 C 35 % 1011,3 hPa 0,0 l/m 2,2 km/h (1 Bft) N 1,00 h 0,330 mm 1,6 UV-I 386 W/m 3,4 C 19,0 C 4,1 km/h (1 Bft)
01.04.2014 17:00 18,7 C 36 % 1011,0 hPa 0,0 l/m 2,8 km/h (1 Bft) N 1,00 h 0,254 mm 0,8 UV-I 212 W/m 3,2 C 18,7 C 4,7 km/h (1 Bft)
01.04.2014 18:00 17,4 C 38 % 1011,1 hPa 0,0 l/m 5,2 km/h (1 Bft) N-NO 0,67 h 0,152 mm 0,5 UV-I 71 W/m 3,1 C 17,3 C 7,7 km/h (2 Bft)
01.04.2014 19:00 15,7 C 46 % 1011,2 hPa 0,0 l/m 1,3 km/h (1 Bft) O 0,00 h 0,102 mm 0,0 UV-I 17 W/m 4,0 C 15,7 C 3,0 km/h (1 Bft)
01.04.2014 20:00 13,6 C 57 % 1011,6 hPa 0,0 l/m 2,0 km/h (1 Bft) O 0,00 h 0,025 mm 0,0 UV-I 0 W/m 5,3 C 13,6 C 3,7 km/h (1 Bft)
01.04.2014 21:00 12,0 C 65 % 1011,8 hPa 0,0 l/m 0,9 km/h (0 Bft) O-NO 0,00 h 0,051 mm 0,0 UV-I 0 W/m 5,7 C 12,0 C 2,0 km/h (1 Bft)
01.04.2014 22:00 10,1 C 74 % 1011,8 hPa 0,0 l/m 0,4 km/h (0 Bft) O-NO 0,00 h 0,025 mm 0,0 UV-I 0 W/m 5,5 C 10,1 C 1,1 km/h (0 Bft)
01.04.2014 23:00 8,9 C 78 % 1011,7 hPa 0,0 l/m 1,6 km/h (1 Bft) O-NO 0,00 h 0,025 mm 0,0 UV-I 0 W/m 5,2 C 8,9 C 3,5 km/h (1 Bft)
02.04.2014 00:00 8,5 C 78 % 1011,6 hPa 0,0 l/m 1,4 km/h (1 Bft) O-NO 0,00 h 0,025 mm 0,0 UV-I 0 W/m 4,9 C 8,5 C 2,9 km/h (1 Bft)
02.04.2014 01:00 7,6 C 82 % 1011,6 hPa 0,0 l/m 0,9 km/h (0 Bft) O-NO 0,00 h 0,025 mm 0,0 UV-I 0 W/m 4,8 C 7,6 C 1,6 km/h (1 Bft)
02.04.2014 02:00 7,5 C 84 % 1011,6 hPa 0,0 l/m 1,0 km/h (0 Bft) N 0,00 h 0,000 mm 0,0 UV-I 0 W/m 5,0 C 7,5 C 2,0 km/h (1 Bft)
02.04.2014 03:00 6,6 C 86 % 1011,2 hPa 0,0 l/m 0,4 km/h (0 Bft) N 0,00 h 0,000 mm 0,0 UV-I 0 W/m 4,5 C 6,6 C 0,9 km/h (0 Bft)
02.04.2014 04:00 6,2 C 89 % 1011,0 hPa 0,0 l/m 0,5 km/h (0 Bft) N 0,00 h 0,000 mm 0,0 UV-I 0 W/m 4,5 C 6,2 C 1,3 km/h (1 Bft)
02.04.2014 05:00 5,4 C 91 % 1010,9 hPa 0,0 l/m 0,7 km/h (0 Bft) N 0,00 h 0,000 mm 0,0 UV-I 0 W/m 4,0 C 5,4 C 1,3 km/h (1 Bft)
02.04.2014 06:00 4,9 C 91 % 1011,0 hPa 0,0 l/m 0,3 km/h (0 Bft) N 0,00 h 0,000 mm 0,0 UV-I 5 W/m 3,6 C 4,9 C 0,8 km/h (0 Bft)
02.04.2014 07:00 4,2 C 92 % 1011,4 hPa 0,0 l/m 0,0 km/h (0 Bft) N 0,22 h 0,000 mm 0,0 UV-I 34 W/m 3,1 C 4,2 C 0,0 km/h (0 Bft)
02.04.2014 08:00 5,6 C 91 % 1011,3 hPa 0,0 l/m 0,1 km/h (0 Bft) N 1,00 h 0,025 mm 0,6 UV-I 142 W/m 4,2 C 5,6 C 0,5 km/h (0 Bft)
02.04.2014 09:00 10,2 C 78 % 1010,9 hPa 0,0 l/m 0,5 km/h (0 Bft) O-NO 1,00 h 0,051 mm 1,1 UV-I 307 W/m 6,5 C 10,2 C 1,7 km/h (1 Bft)
02.04.2014 10:00 14,5 C 62 % 1010,7 hPa 0,0 l/m 2,6 km/h (1 Bft) O 1,00 h 0,152 mm 2,0 UV-I 463 W/m 7,2 C 14,5 C 5,7 km/h (1 Bft)
02.04.2014 11:00 16,1 C 56 % 1010,3 hPa 0,0 l/m 1,9 km/h (1 Bft) S-SO 1,00 h 0,254 mm 2,8 UV-I 574 W/m 7,2 C 16,1 C 4,2 km/h (1 Bft)
02.04.2014 12:00 17,6 C 51 % 1009,6 hPa 0,0 l/m 3,2 km/h (1 Bft) SO 1,00 h 0,330 mm 3,4 UV-I 659 W/m 7,3 C 17,6 C 6,0 km/h (2 Bft)
02.04.2014 13:00 18,9 C 46 % 1008,7 hPa 0,0 l/m 5,1 km/h (1 Bft) SO 1,00 h 0,381 mm 3,4 UV-I 653 W/m 7,0 C 18,6 C 8,9 km/h (2 Bft)
02.04.2014 14:00 19,3 C 44 % 1008,3 hPa 0,0 l/m 4,7 km/h (1 Bft) SO 1,00 h 0,406 mm 2,8 UV-I 588 W/m 6,9 C 19,1 C 8,2 km/h (2 Bft)
02.04.2014 15:00 20,2 C 39 % 1007,7 hPa 0,0 l/m 5,0 km/h (1 Bft) SW 1,00 h 0,381 mm 2,6 UV-I 595 W/m 5,7 C 20,0 C 8,1 km/h (2 Bft)
02.04.2014 16:00 20,2 C 37 % 1007,3 hPa 0,0 l/m 5,6 km/h (1 Bft) W 1,00 h 0,381 mm 1,6 UV-I 421 W/m 4,9 C 20,0 C 8,7 km/h (2 Bft)
02.04.2014 17:00 19,2 C 40 % 1006,9 hPa 0,0 l/m 4,8 km/h (1 Bft) SO 1,00 h 0,305 mm 0,8 UV-I 226 W/m 5,1 C 19,0 C 8,0 km/h (2 Bft)
02.04.2014 18:00 18,2 C 44 % 1006,6 hPa 0,0 l/m 6,3 km/h (2 Bft) SO 0,68 h 0,178 mm 0,5 UV-I 91 W/m 5,7 C 17,8 C 9,5 km/h (2 Bft)
02.04.2014 19:00 16,2 C 51 % 1006,6 hPa 0,0 l/m 1,9 km/h (1 Bft) O-SO 0,00 h 0,102 mm 0,0 UV-I 16 W/m 5,9 C 16,2 C 3,7 km/h (1 Bft)
02.04.2014 20:00 13,5 C 62 % 1006,7 hPa 0,0 l/m 0,6 km/h (0 Bft) O 0,00 h 0,025 mm 0,0 UV-I 0 W/m 6,2 C 13,5 C 1,4 km/h (1 Bft)
02.04.2014 21:00 11,1 C 73 % 1006,8 hPa 0,0 l/m 1,9 km/h (1 Bft) O 0,00 h 0,025 mm 0,0 UV-I 0 W/m 6,3 C 11,1 C 3,1 km/h (1 Bft)
02.04.2014 22:00 9,6 C 78 % 1006,7 hPa 0,0 l/m 0,2 km/h (0 Bft) O-NO 0,00 h 0,025 mm 0,0 UV-I 0 W/m 5,9 C 9,6 C 0,6 km/h (0 Bft)
02.04.2014 23:00 8,2 C 83 % 1006,5 hPa 0,0 l/m 0,0 km/h (0 Bft) N 0,00 h 0,025 mm 0,0 UV-I 0 W/m 5,4 C 8,2 C 0,0 km/h (0 Bft)
03.04.2014 00:00 7,2 C 86 % 1006,5 hPa 0,0 l/m 0,1 km/h (0 Bft) O 0,00 h 0,000 mm 0,0 UV-I 0 W/m 5,0 C 7,2 C 0,4 km/h (0 Bft)
03.04.2014 01:00 6,2 C 88 % 1006,4 hPa 0,0 l/m 0,9 km/h (0 Bft) N-NO 0,00 h 0,000 mm 0,0 UV-I 0 W/m 4,3 C 6,2 C 1,8 km/h (1 Bft)
03.04.2014 02:00 5,8 C 89 % 1006,4 hPa 0,0 l/m 0,6 km/h (0 Bft) N-NO 0,00 h 0,000 mm 0,0 UV-I 0 W/m 4,2 C 5,8 C 1,6 km/h (1 Bft)
03.04.2014 03:00 5,4 C 90 % 1006,4 hPa 0,0 l/m 0,0 km/h (0 Bft) N 0,00 h 0,000 mm 0,0 UV-I 0 W/m 3,9 C 5,4 C 0,3 km/h (0 Bft)
03.04.2014 04:00 4,6 C 92 % 1006,2 hPa 0,0 l/m 0,0 km/h (0 Bft) N 0,00 h 0,000 mm 0,0 UV-I 0 W/m 3,3 C 4,6 C 0,0 km/h (0 Bft)
03.04.2014 05:00 4,2 C 92 % 1005,9 hPa 0,0 l/m 0,0 km/h (0 Bft) N 0,00 h 0,000 mm 0,0 UV-I 0 W/m 3,0 C 4,2 C 0,0 km/h (0 Bft)
03.04.2014 06:00 3,7 C 93 % 1005,9 hPa 0,0 l/m 0,0 km/h (0 Bft) N 0,00 h 0,000 mm 0,0 UV-I 7 W/m 2,7 C 3,7 C 0,0 km/h (0 Bft)
03.04.2014 07:00 3,7 C 92 % 1006,1 hPa 0,0 l/m 0,0 km/h (0 Bft) N 0,32 h 0,000 mm 0,0 UV-I 41 W/m 2,6 C 3,7 C 0,0 km/h (0 Bft)
03.04.2014 08:00 5,9 C 88 % 1006,1 hPa 0,0 l/m 0,2 km/h (0 Bft) S 1,00 h 0,025 mm 0,6 UV-I 166 W/m 4,1 C 5,9 C 0,9 km/h (0 Bft)
03.04.2014 09:00 10,5 C 76 % 1005,8 hPa 0,0 l/m 0,6 km/h (0 Bft) W 1,00 h 0,076 mm 1,3 UV-I 356 W/m 6,4 C 10,5 C 1,8 km/h (1 Bft)
03.04.2014 10:00 14,3 C 63 % 1005,9 hPa 0,0 l/m 4,7 km/h (1 Bft) NW 1,00 h 0,178 mm 2,1 UV-I 469 W/m 7,3 C 14,2 C 7,0 km/h (2 Bft)
03.04.2014 11:00 16,7 C 56 % 1005,9 hPa 0,0 l/m 8,0 km/h (2 Bft) S-SO 1,00 h 0,254 mm 3,1 UV-I 614 W/m 7,9 C 15,9 C 11,9 km/h (2 Bft)
03.04.2014 12:00 18,8 C 49 % 1005,6 hPa 0,0 l/m 5,6 km/h (1 Bft) S-SO 1,00 h 0,381 mm 3,8 UV-I 700 W/m 7,8 C 18,5 C 8,7 km/h (2 Bft)
03.04.2014 13:00 20,4 C 44 % 1005,4 hPa 0,0 l/m 7,0 km/h (2 Bft) W-SW 1,00 h 0,432 mm 3,8 UV-I 701 W/m 7,7 C 19,9 C 10,9 km/h (2 Bft)
03.04.2014 14:00 21,6 C 35 % 1005,0 hPa 0,0 l/m 9,5 km/h (2 Bft) W-SW 1,00 h 0,457 mm 3,4 UV-I 657 W/m 5,5 C 20,6 C 14,8 km/h (3 Bft)
03.04.2014 15:00 21,8 C 35 % 1004,8 hPa 0,0 l/m 8,5 km/h (2 Bft) W-SW 1,00 h 0,483 mm 2,5 UV-I 551 W/m 5,7 C 21,0 C 12,7 km/h (3 Bft)
03.04.2014 16:00 21,6 C 36 % 1004,7 hPa 0,0 l/m 7,6 km/h (2 Bft) NW 1,00 h 0,406 mm 1,4 UV-I 310 W/m 5,7 C 21,1 C 11,5 km/h (2 Bft)
03.04.2014 17:00 20,9 C 36 % 1004,5 hPa 0,0 l/m 6,7 km/h (2 Bft) NW 1,00 h 0,254 mm 0,8 UV-I 222 W/m 5,3 C 20,5 C 9,6 km/h (2 Bft)
03.04.2014 18:00 20,0 C 38 % 1004,8 hPa 0,0 l/m 4,5 km/h (1 Bft) N-NW 0,65 h 0,203 mm 0,5 UV-I 80 W/m 5,2 C 19,9 C 6,7 km/h (2 Bft)
03.04.2014 19:00 17,7 C 47 % 1005,0 hPa 0,0 l/m 1,1 km/h (1 Bft) NW 0,00 h 0,102 mm 0,0 UV-I 13 W/m 6,0 C 17,7 C 2,5 km/h (1 Bft)
03.04.2014 20:00 14,5 C 61 % 1005,7 hPa 0,0 l/m 0,9 km/h (0 Bft) N-NO 0,00 h 0,025 mm 0,0 UV-I 0 W/m 7,1 C 14,5 C 1,9 km/h (1 Bft)
03.04.2014 21:00 12,2 C 71 % 1005,9 hPa 0,0 l/m 0,2 km/h (0 Bft) N 0,00 h 0,025 mm 0,0 UV-I 0 W/m 7,1 C 12,2 C 0,6 km/h (0 Bft)
03.04.2014 22:00 10,7 C 77 % 1006,0 hPa 0,0 l/m 0,8 km/h (0 Bft) SO 0,00 h 0,025 mm 0,0 UV-I 0 W/m 6,8 C 10,7 C 1,4 km/h (1 Bft)
03.04.2014 23:00 9,8 C 79 % 1006,1 hPa 0,0 l/m 0,7 km/h (0 Bft) O-SO 0,00 h 0,025 mm 0,0 UV-I 0 W/m 6,4 C 9,8 C 1,5 km/h (1 Bft)
04.04.2014 00:00 8,6 C 83 % 1006,4 hPa 0,0 l/m 0,9 km/h (0 Bft) N 0,00 h 0,025 mm 0,0 UV-I 0 W/m 5,9 C 8,6 C 1,7 km/h (1 Bft)
04.04.2014 01:00 7,6 C 87 % 1006,5 hPa 0,0 l/m 0,1 km/h (0 Bft) NO 0,00 h 0,000 mm 0,0 UV-I 0 W/m 5,6 C 7,6 C 0,3 km/h (0 Bft)
04.04.2014 02:00 6,9 C 89 % 1006,5 hPa 0,0 l/m 0,2 km/h (0 Bft) N-NO 0,00 h 0,000 mm 0,0 UV-I 0 W/m 5,3 C 6,9 C 0,5 km/h (0 Bft)
04.04.2014 03:00 6,0 C 90 % 1006,4 hPa 0,0 l/m 0,1 km/h (0 Bft) N 0,00 h 0,000 mm 0,0 UV-I 0 W/m 4,4 C 6,0 C 0,4 km/h (0 Bft)
04.04.2014 04:00 5,5 C 91 % 1006,3 hPa 0,0 l/m 0,6 km/h (0 Bft) N 0,00 h 0,000 mm 0,0 UV-I 0 W/m 4,1 C 5,5 C 1,0 km/h (0 Bft)
04.04.2014 05:00 5,1 C 91 % 1006,4 hPa 0,0 l/m 0,2 km/h (0 Bft) N 0,00 h 0,000 mm 0,0 UV-I 0 W/m 3,8 C 5,1 C 0,7 km/h (0 Bft)
04.04.2014 06:00 5,0 C 92 % 1006,5 hPa 0,0 l/m 0,5 km/h (0 Bft) N 0,00 h 0,000 mm 0,0 UV-I 8 W/m 3,8 C 5,0 C 0,9 km/h (0 Bft)
04.04.2014 07:00 5,9 C 92 % 1006,8 hPa 0,0 l/m 0,9 km/h (0 Bft) NW 0,40 h 0,000 mm 0,0 UV-I 46 W/m 4,8 C 5,9 C 1,9 km/h (1 Bft)
04.04.2014 08:00 7,9 C 89 % 1007,0 hPa 0,0 l/m 0,0 km/h (0 Bft) N 1,00 h 0,025 mm 0,7 UV-I 173 W/m 6,2 C 7,9 C 0,0 km/h (0 Bft)
04.04.2014 09:00 13,3 C 75 % 1006,9 hPa 0,0 l/m 0,5 km/h (0 Bft) S-SO 1,00 h 0,076 mm 1,3 UV-I 385 W/m 8,9 C 13,3 C 1,7 km/h (1 Bft)
04.04.2014 10:00 18,3 C 53 % 1006,8 hPa 0,0 l/m 3,4 km/h (1 Bft) O 1,00 h 0,203 mm 2,2 UV-I 544 W/m 8,5 C 18,3 C 7,1 km/h (2 Bft)
04.04.2014 11:00 20,2 C 42 % 1006,8 hPa 0,0 l/m 6,6 km/h (2 Bft) O 1,00 h 0,330 mm 3,1 UV-I 600 W/m 7,0 C 19,8 C 11,7 km/h (2 Bft)
04.04.2014 12:00 20,7 C 39 % 1006,7 hPa 0,0 l/m 6,7 km/h (2 Bft) O 1,00 h 0,406 mm 3,3 UV-I 587 W/m 6,3 C 20,2 C 11,4 km/h (2 Bft)
04.04.2014 13:00 20,8 C 38 % 1006,3 hPa 0,0 l/m 7,0 km/h (2 Bft) SO 1,00 h 0,406 mm 3,0 UV-I 512 W/m 6,1 C 20,4 C 11,8 km/h (2 Bft)
04.04.2014 14:00 20,4 C 38 % 1006,1 hPa 0,0 l/m 5,3 km/h (1 Bft) SO 1,00 h 0,356 mm 2,1 UV-I 361 W/m 5,8 C 20,3 C 9,4 km/h (2 Bft)
04.04.2014 15:00 20,2 C 40 % 1005,9 hPa 0,0 l/m 3,7 km/h (1 Bft) O-NO 1,00 h 0,254 mm 1,5 UV-I 278 W/m 6,3 C 20,2 C 7,3 km/h (2 Bft)
04.04.2014 16:00 20,2 C 41 % 1005,9 hPa 0,0 l/m 4,1 km/h (1 Bft) O-NO 1,00 h 0,203 mm 1,1 UV-I 242 W/m 6,5 C 20,1 C 7,9 km/h (2 Bft)
04.04.2014 17:00 19,6 C 44 % 1005,9 hPa 0,0 l/m 3,7 km/h (1 Bft) O-NO 1,00 h 0,178 mm 0,6 UV-I 138 W/m 7,1 C 19,5 C 7,1 km/h (2 Bft)
04.04.2014 18:00 18,5 C 53 % 1006,2 hPa 0,0 l/m 5,2 km/h (1 Bft) O-NO 0,87 h 0,127 mm 0,0 UV-I 69 W/m 8,7 C 18,2 C 9,7 km/h (2 Bft)
04.04.2014 19:00 16,6 C 62 % 1006,7 hPa 0,0 l/m 3,0 km/h (1 Bft) N-NO 0,00 h 0,076 mm 0,0 UV-I 19 W/m 9,3 C 16,6 C 5,9 km/h (2 Bft)
04.04.2014 20:00 15,2 C 66 % 1007,4 hPa 0,0 l/m 2,1 km/h (1 Bft) NO 0,00 h 0,025 mm 0,0 UV-I 0 W/m 9,0 C 15,2 C 4,6 km/h (1 Bft)
04.04.2014 21:00 14,5 C 68 % 1007,9 hPa 0,0 l/m 1,1 km/h (0 Bft) O-NO 0,00 h 0,025 mm 0,0 UV-I 0 W/m 8,6 C 14,5 C 3,2 km/h (1 Bft)
04.04.2014 22:00 13,2 C 73 % 1008,2 hPa 0,0 l/m 0,6 km/h (0 Bft) NW 0,00 h 0,025 mm 0,0 UV-I 0 W/m 8,5 C 13,2 C 2,0 km/h (1 Bft)
04.04.2014 23:00 12,2 C 78 % 1008,4 hPa 0,0 l/m 1,3 km/h (1 Bft) NW 0,00 h 0,025 mm 0,0 UV-I 0 W/m 8,4 C 12,2 C 2,7 km/h (1 Bft)
05.04.2014 00:00 12,0 C 78 % 1008,4 hPa 0,0 l/m 2,2 km/h (1 Bft) N-NO 0,00 h 0,025 mm 0,0 UV-I 0 W/m 8,3 C 12,0 C 4,3 km/h (1 Bft)
05.04.2014 01:00 12,2 C 75 % 1008,6 hPa 0,0 l/m 4,9 km/h (1 Bft) N 0,00 h 0,025 mm 0,0 UV-I 0 W/m 8,0 C 12,1 C 7,9 km/h (2 Bft)
05.04.2014 02:00 11,0 C 81 % 1008,7 hPa 0,0 l/m 5,3 km/h (1 Bft) N 0,00 h 0,025 mm 0,0 UV-I 0 W/m 7,8 C 10,7 C 7,6 km/h (2 Bft)
05.04.2014 03:00 10,3 C 84 % 1008,5 hPa 0,0 l/m 1,3 km/h (1 Bft) N 0,00 h 0,025 mm 0,0 UV-I 0 W/m 7,8 C 10,3 C 2,8 km/h (1 Bft)
05.04.2014 04:00 9,7 C 87 % 1008,7 hPa 0,0 l/m 0,9 km/h (0 Bft) N 0,00 h 0,000 mm 0,0 UV-I 0 W/m 7,6 C 9,7 C 2,0 km/h (1 Bft)
05.04.2014 05:00 9,3 C 88 % 1009,0 hPa 0,0 l/m 2,8 km/h (1 Bft) N 0,00 h 0,000 mm 0,0 UV-I 0 W/m 7,5 C 9,3 C 4,6 km/h (1 Bft)
05.04.2014 06:00 9,1 C 89 % 1009,2 hPa 0,0 l/m 1,4 km/h (1 Bft) N-NO 0,00 h 0,000 mm 0,0 UV-I 6 W/m 7,4 C 9,1 C 3,0 km/h (1 Bft)
05.04.2014 07:00 9,0 C 90 % 1009,7 hPa 0,0 l/m 1,7 km/h (1 Bft) N 0,03 h 0,000 mm 0,0 UV-I 27 W/m 7,4 C 9,0 C 2,9 km/h (1 Bft)
05.04.2014 08:00 9,5 C 89 % 1010,2 hPa 0,0 l/m 6,2 km/h (2 Bft) N 1,00 h 0,025 mm 0,5 UV-I 84 W/m 7,8 C 9,0 C 8,5 km/h (2 Bft)
05.04.2014 09:00 11,0 C 85 % 1010,6 hPa 0,0 l/m 4,3 km/h (1 Bft) N 1,00 h 0,051 mm 0,8 UV-I 160 W/m 8,6 C 11,0 C 6,4 km/h (2 Bft)
05.04.2014 10:00 13,0 C 78 % 1011,0 hPa 0,0 l/m 2,3 km/h (1 Bft) S-SO 1,00 h 0,076 mm 1,4 UV-I 258 W/m 9,2 C 13,0 C 4,6 km/h (1 Bft)
05.04.2014 11:00 14,8 C 69 % 1011,3 hPa 0,0 l/m 4,7 km/h (1 Bft) O-NO 1,00 h 0,127 mm 2,0 UV-I 354 W/m 9,2 C 14,6 C 8,7 km/h (2 Bft)
05.04.2014 12:00 15,5 C 66 % 1011,5 hPa 0,0 l/m 3,5 km/h (1 Bft) O-NO 1,00 h 0,203 mm 2,0 UV-I 331 W/m 9,2 C 15,5 C 6,4 km/h (2 Bft)
05.04.2014 13:00 16,4 C 62 % 1011,9 hPa 0,0 l/m 4,4 km/h (1 Bft) SO 1,00 h 0,203 mm 2,5 UV-I 408 W/m 8,9 C 16,3 C 7,7 km/h (2 Bft)
05.04.2014 14:00 16,6 C 61 % 1011,9 hPa 0,0 l/m 4,7 km/h (1 Bft) S-SO 1,00 h 0,254 mm 2,2 UV-I 380 W/m 9,1 C 16,6 C 7,7 km/h (2 Bft)
05.04.2014 15:00 17,3 C 57 % 1012,0 hPa 0,0 l/m 2,7 km/h (1 Bft) S-SO 1,00 h 0,229 mm 1,8 UV-I 331 W/m 8,7 C 17,3 C 5,2 km/h (1 Bft)
05.04.2014 16:00 17,1 C 59 % 1012,1 hPa 0,0 l/m 2,1 km/h (1 Bft) S 1,00 h 0,203 mm 1,2 UV-I 229 W/m 9,0 C 17,1 C 4,2 km/h (1 Bft)
05.04.2014 17:00 16,9 C 58 % 1012,5 hPa 0,0 l/m 4,1 km/h (1 Bft) S 1,00 h 0,152 mm 0,7 UV-I 164 W/m 8,6 C 16,9 C 6,4 km/h (2 Bft)
05.04.2014 18:00 16,7 C 59 % 1012,9 hPa 0,0 l/m 3,7 km/h (1 Bft) S 1,00 h 0,127 mm 0,5 UV-I 142 W/m 8,6 C 16,7 C 5,8 km/h (2 Bft)
05.04.2014 19:00 16,0 C 63 % 1013,4 hPa 0,0 l/m 3,2 km/h (1 Bft) SO 0,20 h 0,102 mm 0,0 UV-I 36 W/m 8,8 C 15,9 C 5,3 km/h (1 Bft)
05.04.2014 20:00 13,0 C 87 % 1014,1 hPa 0,8 l/m 3,2 km/h (1 Bft) N-NO 0,00 h 0,025 mm 0,0 UV-I 0 W/m 10,8 C 13,0 C 5,7 km/h (1 Bft)
05.04.2014 21:00 12,0 C 91 % 1014,5 hPa 0,0 l/m 0,4 km/h (0 Bft) O-SO 0,00 h 0,025 mm 0,0 UV-I 0 W/m 10,6 C 12,0 C 1,3 km/h (1 Bft)
05.04.2014 22:00 11,2 C 93 % 1014,7 hPa 0,0 l/m 0,5 km/h (0 Bft) W-NW 0,00 h 0,000 mm 0,0 UV-I 0 W/m 10,2 C 11,2 C 0,9 km/h (0 Bft)
05.04.2014 23:00 10,2 C 95 % 1015,1 hPa 0,0 l/m 0,3 km/h (0 Bft) N-NW 0,00 h 0,000 mm 0,0 UV-I 0 W/m 9,4 C 10,2 C 0,7 km/h (0 Bft)
06.04.2014 00:00 9,6 C 96 % 1015,5 hPa 0,0 l/m 0,0 km/h (0 Bft) N-NW 0,00 h 0,000 mm 0,0 UV-I 0 W/m 8,9 C 9,6 C 0,3 km/h (0 Bft)
06.04.2014 01:00 9,2 C 96 % 1015,8 hPa 0,0 l/m 0,0 km/h (0 Bft) N-NW 0,00 h 0,000 mm 0,0 UV-I 0 W/m 8,6 C 9,2 C 0,0 km/h (0 Bft)
06.04.2014 02:00 8,7 C 96 % 1016,0 hPa 0,0 l/m 0,0 km/h (0 Bft) N 0,00 h 0,000 mm 0,0 UV-I 0 W/m 8,1 C 8,7 C 0,0 km/h (0 Bft)
06.04.2014 03:00 8,1 C 96 % 1016,1 hPa 0,0 l/m 0,0 km/h (0 Bft) N-NW 0,00 h 0,000 mm 0,0 UV-I 0 W/m 7,5 C 8,1 C 0,1 km/h (0 Bft)
06.04.2014 04:00 7,8 C 96 % 1016,2 hPa 0,0 l/m 0,2 km/h (0 Bft) N-NW 0,00 h 0,000 mm 0,0 UV-I 0 W/m 7,2 C 7,8 C 0,5 km/h (0 Bft)
06.04.2014 05:00 7,7 C 97 % 1016,3 hPa 0,0 l/m 0,3 km/h (0 Bft) N-NW 0,00 h 0,000 mm 0,0 UV-I 0 W/m 7,2 C 7,7 C 1,1 km/h (0 Bft)
06.04.2014 06:00 7,3 C 96 % 1016,6 hPa 0,0 l/m 0,0 km/h (0 Bft) N 0,00 h 0,000 mm 0,0 UV-I 5 W/m 6,8 C 7,3 C 0,0 km/h (0 Bft)
06.04.2014 07:00 8,0 C 97 % 1017,1 hPa 0,0 l/m 0,0 km/h (0 Bft) N 0,00 h 0,000 mm 0,0 UV-I 17 W/m 7,5 C 8,0 C 0,2 km/h (0 Bft)
06.04.2014 08:00 8,8 C 96 % 1017,6 hPa 0,0 l/m 0,0 km/h (0 Bft) N 0,12 h 0,000 mm 0,0 UV-I 34 W/m 8,3 C 8,8 C 0,0 km/h (0 Bft)
06.04.2014 09:00 10,1 C 94 % 1017,9 hPa 0,0 l/m 0,2 km/h (0 Bft) N-NO 1,00 h 0,025 mm 1,0 UV-I 124 W/m 9,2 C 10,1 C 0,5 km/h (0 Bft)
06.04.2014 10:00 12,2 C 88 % 1018,0 hPa 0,0 l/m 2,6 km/h (1 Bft) NW 1,00 h 0,051 mm 1,5 UV-I 312 W/m 10,2 C 12,2 C 4,7 km/h (1 Bft)
06.04.2014 11:00 12,7 C 83 % 1018,3 hPa 0,0 l/m 2,3 km/h (1 Bft) N 0,78 h 0,152 mm 0,7 UV-I 87 W/m 9,9 C 12,7 C 4,3 km/h (1 Bft)
06.04.2014 12:00 13,4 C 79 % 1018,1 hPa 0,0 l/m 3,0 km/h (1 Bft) N-NW 1,00 h 0,051 mm 2,4 UV-I 356 W/m 9,7 C 13,3 C 5,1 km/h (1 Bft)
06.04.2014 13:00 15,3 C 65 % 1017,7 hPa 0,0 l/m 7,1 km/h (2 Bft) W-SW 1,00 h 0,203 mm 2,8 UV-I 454 W/m 8,7 C 14,7 C 10,9 km/h (2 Bft)
06.04.2014 14:00 16,9 C 56 % 1017,5 hPa 0,0 l/m 8,6 km/h (2 Bft) W-SW 1,00 h 0,255 mm 3,4 UV-I 675 W/m 8,1 C 15,8 C 13,1 km/h (3 Bft)
06.04.2014 15:00 18,0 C 47 % 1017,3 hPa 0,0 l/m 10,8 km/h (2 Bft) W-SW 1,00 h 0,406 mm 3,0 UV-I 685 W/m 6,4 C 16,1 C 16,1 km/h (3 Bft)
06.04.2014 16:00 17,9 C 44 % 1017,0 hPa 0,0 l/m 10,1 km/h (2 Bft) W-SW 1,00 h 0,432 mm 1,9 UV-I 488 W/m 5,5 C 16,3 C 15,5 km/h (3 Bft)
06.04.2014 17:00 17,5 C 43 % 1016,9 hPa 0,0 l/m 10,4 km/h (2 Bft) W-SW 1,00 h 0,330 mm 1,0 UV-I 294 W/m 4,9 C 15,7 C 15,5 km/h (3 Bft)
06.04.2014 18:00 16,8 C 46 % 1017,1 hPa 0,0 l/m 7,8 km/h (2 Bft) W 0,53 h 0,254 mm 0,6 UV-I 104 W/m 5,0 C 15,9 C 11,9 km/h (2 Bft)
06.04.2014 19:00 15,2 C 52 % 1017,4 hPa 0,0 l/m 4,2 km/h (1 Bft) W-NW 0,00 h 0,127 mm 0,0 UV-I 15 W/m 5,4 C 15,1 C 6,3 km/h (2 Bft)
06.04.2014 20:00 12,5 C 64 % 1018,1 hPa 0,0 l/m 0,1 km/h (0 Bft) W-NW 0,00 h 0,025 mm 0,0 UV-I 0 W/m 5,7 C 12,5 C 0,4 km/h (0 Bft)
06.04.2014 21:00 9,9 C 77 % 1018,7 hPa 0,0 l/m 0,0 km/h (0 Bft) N 0,00 h 0,026 mm 0,0 UV-I 0 W/m 5,9 C 9,9 C 0,2 km/h (0 Bft)
06.04.2014 22:00 8,3 C 84 % 1019,0 hPa 0,0 l/m 0,2 km/h (0 Bft) W-NW 0,00 h 0,025 mm 0,0 UV-I 0 W/m 5,7 C 8,3 C 0,6 km/h (0 Bft)
06.04.2014 23:00 7,1 C 88 % 1019,3 hPa 0,0 l/m 0,2 km/h (0 Bft) O 0,00 h 0,000 mm 0,0 UV-I 0 W/m 5,2 C 7,1 C 0,7 km/h (0 Bft)
Min-Datum _ 02.04.14 01.04.14 03.04.14 - 31.03.14 - - - - - 01.04.14 01.04.14 31.03.14
_ Min-Zeit 08:48 16:33 16:47 - 00:04 - - - - - 06:49 06:49 00:06
Minimum _ 0,0 C 33 % 1004,5 hPa - 0,0 km/h (0 Bft) - - - - - 0,0 C 0,9 C 0,0 km/h (0 Bft)
Max-Datum _ 03.04.14 06.04.14 06.04.14 05.04.14 03.04.14 - 06.04.14 03.04.14 06.04.14 06.04.14 05.04.14 03.04.14 06.04.14
_ Max-Zeit 15:39 04:14 23:49 20:20 15:05 - 14:38 15:00 13:07 13:15 19:55 15:38 16:51
Maximum _ 22,3 C 97 % 1019,4 hPa 0,8 l/m 17,7 km/h
W-SW (3 Bft)
- 0,07 h 0,483 mm 4,8 UV-I 909 W/m 11,1 C 22,2 C 25,7 km/h
W-SW (4 Bft)
Durchschnitt _ 11,6 C 72 % 1011,1 hPa #1,0 l/m 2,3 km/h (1 Bft) N #75:13 h #17,793 mm 1,8 UV-I 281 W/m 5,9 C 11,5 C 3,9 km/h (1 Bft)